Time;durP1;ratioP1;P1;durP2;ratioP2;P2;SDS_P1;SDS_P2;PMS_P1;PMS_P2;Temp;Humidity;BMP_temperature;BMP_pressure;BME280_temperature;BME280_humidity;BME280_pressure;Samples;Min_cycle;Max_cycle;Signal;HPM_P1;HPM_P2
2022/10/27 00:00:56;;;;;;;7.55;3.90;;;;;;;15.31;100.00;102039.50;6096758;23;20065;-52
2022/10/27 00:03:23;;;;;;;8.85;3.92;;;;;;;15.29;100.00;102037.00;6098281;23;20019;-50
2022/10/27 00:05:51;;;;;;;9.75;4.00;;;;;;;15.29;100.00;102025.19;6095560;23;20025;-51
2022/10/27 00:08:20;;;;;;;9.98;4.05;;;;;;;15.28;100.00;102035.38;6096748;23;20033;-47
2022/10/27 00:10:58;;;;;;;9.02;3.75;;;;;;;15.27;100.00;102030.13;6096681;23;20018;-50
2022/10/27 00:13:27;;;;;;;10.70;4.30;;;;;;;15.27;100.00;102032.88;6095385;23;20355;-50
2022/10/27 00:16:14;;;;;;;14.23;4.53;;;;;;;15.25;100.00;102029.56;6097211;23;20024;-51
2022/10/27 00:18:45;;;;;;;13.48;4.28;;;;;;;15.22;100.00;102036.44;6096688;23;20387;-51
2022/10/27 00:21:17;;;;;;;11.57;4.13;;;;;;;15.21;100.00;102031.22;6096118;23;20023;-49
2022/10/27 00:23:49;;;;;;;6.82;3.60;;;;;;;15.21;100.00;102034.78;6095697;23;20026;-52
2022/10/27 00:26:18;;;;;;;11.68;4.63;;;;;;;15.20;100.00;102033.16;6071760;23;20026;-50
2022/10/27 00:28:46;;;;;;;10.52;4.10;;;;;;;15.19;100.00;102031.50;6097118;23;20026;-52
2022/10/27 00:31:19;;;;;;;11.57;3.97;;;;;;;15.17;100.00;102033.66;6095743;23;20026;-50
2022/10/27 00:33:48;;;;;;;9.52;4.22;;;;;;;15.16;100.00;102037.53;6095202;23;20106;-51
2022/10/27 00:36:18;;;;;;;7.88;3.97;;;;;;;15.16;100.00;102034.78;6096283;23;20026;-49
2022/10/27 00:38:45;;;;;;;9.40;3.92;;;;;;;15.15;100.00;102037.78;6097565;23;20022;-55
2022/10/27 00:41:26;;;;;;;9.80;3.70;;;;;;;15.15;100.00;102048.75;6095867;23;20014;-55
2022/10/27 00:43:55;;;;;;;12.75;4.10;;;;;;;15.13;100.00;102043.56;6094989;23;20018;-54
2022/10/27 00:46:33;;;;;;;11.05;4.05;;;;;;;15.13;100.00;102046.31;6095699;23;20046;-52
2022/10/27 00:49:14;;;;;;;13.15;3.88;;;;;;;15.13;100.00;102046.31;6096773;23;20093;-52
2022/10/27 00:51:49;;;;;;;9.05;3.90;;;;;;;15.12;100.00;102050.13;6095606;23;20339;-49
2022/10/27 00:54:18;;;;;;;9.02;3.97;;;;;;;15.13;100.00;102049.06;6095304;23;20073;-51
2022/10/27 00:56:48;;;;;;;8.52;3.50;;;;;;;15.11;100.00;102046.56;6096704;23;20030;-51
2022/10/27 00:59:15;;;;;;;8.55;3.83;;;;;;;15.11;100.00;102051.22;6095516;23;20027;-51
2022/10/27 01:01:43;;;;;;;11.40;3.95;;;;;;;15.10;100.00;102049.56;6095729;23;20022;-52
2022/10/27 01:04:13;;;;;;;9.43;4.18;;;;;;;15.09;100.00;102048.75;6096553;23;20049;-50
2022/10/27 01:06:41;;;;;;;11.70;4.32;;;;;;;15.09;100.00;102053.41;6095109;23;20015;-52
2022/10/27 01:09:08;;;;;;;7.80;3.92;;;;;;;15.08;100.00;102052.59;6096979;23;20033;-53
2022/10/27 01:11:36;;;;;;;9.05;3.90;;;;;;;15.06;100.00;102056.72;6047634;23;20019;-50
2022/10/27 01:14:04;;;;;;;10.05;4.18;;;;;;;15.05;100.00;102052.28;6096649;23;20026;-52
2022/10/27 01:16:46;;;;;;;9.13;4.00;;;;;;;15.05;100.00;102055.03;6097197;23;20328;-52
2022/10/27 01:19:49;;;;;;;9.30;3.92;;;;;;;15.02;100.00;102053.66;6096204;23;20030;-54
2022/10/27 01:22:35;;;;;;;10.27;3.70;;;;;;;15.03;100.00;102055.31;6096710;23;20074;-49
2022/10/27 01:25:38;;;;;;;10.20;4.05;;;;;;;15.04;100.00;102062.44;6094971;23;20022;-51
2022/10/27 01:28:12;;;;;;;10.65;3.90;;;;;;;15.04;100.00;102064.38;6094361;23;20038;-51
2022/10/27 01:31:08;;;;;;;11.82;4.13;;;;;;;15.04;100.00;102067.13;6095549;23;20022;-52
2022/10/27 01:33:55;;;;;;;10.68;3.97;;;;;;;15.03;100.00;102062.72;6093385;23;20375;-53
2022/10/27 01:36:33;;;;;;;11.18;3.65;;;;;;;15.03;100.00;102062.72;6094500;23;20078;-52
2022/10/27 01:39:29;;;;;;;9.60;4.03;;;;;;;15.02;100.00;102063.81;6096499;23;20019;-52
2022/10/27 01:41:57;;;;;;;;;;;;;;;15.02;100.00;102063.81;6096094;23;20542;-49
2022/10/27 01:44:32;;;;;;;11.00;4.07;;;;;;;15.03;100.00;102063.56;6095146;23;20623;-50
2022/10/27 01:47:01;;;;;;;12.63;4.03;;;;;;;15.02;100.00;102067.38;6095788;23;20022;-52
2022/10/27 01:49:40;;;;;;;9.73;4.32;;;;;;;15.02;100.00;102066.56;6094250;23;20054;-51
2022/10/27 01:52:38;;;;;;;11.30;3.80;;;;;;;15.02;100.00;102061.06;6096994;23;20018;-53
2022/10/27 01:55:30;;;;;;;9.60;3.90;;;;;;;15.00;100.00;102066.00;6096597;23;20018;-51
2022/10/27 01:58:13;;;;;;;9.57;3.97;;;;;;;14.98;100.00;102063.50;6085537;23;20402;-54
2022/10/27 02:01:18;;;;;;;12.52;3.90;;;;;;;14.99;100.00;102058.88;6095441;23;20085;-50
2022/10/27 02:04:17;;;;;;;9.95;3.47;;;;;;;14.99;100.00;102064.34;6092925;23;20026;-51
2022/10/27 02:07:21;;;;;;;8.13;3.75;;;;;;;15.01;100.00;102062.16;6072492;23;20577;-53
2022/10/27 02:10:00;;;;;;;13.13;4.00;;;;;;;15.01;100.00;102057.50;6053280;23;20026;-52
2022/10/27 02:12:31;;;;;;;12.82;3.90;;;;;;;15.01;100.00;102053.91;6096982;23;20033;-53
2022/10/27 02:15:01;;;;;;;10.45;3.80;;;;;;;15.00;100.00;102053.09;6096662;23;20093;-53
2022/10/27 02:17:36;;;;;;;9.35;3.25;;;;;;;15.01;100.00;102042.94;6097292;23;20011;-52
2022/10/27 02:20:08;;;;;;;10.85;3.70;;;;;;;15.00;100.00;102053.09;6097882;23;20082;-52
2022/10/27 02:22:36;;;;;;;9.27;3.60;;;;;;;15.01;100.00;102051.16;6096862;23;20014;-50
2022/10/27 02:25:04;;;;;;;11.63;4.05;;;;;;;15.00;100.00;102049.53;6098339;23;20018;-52
2022/10/27 02:27:43;;;;;;;7.90;3.42;;;;;;;14.99;100.00;102037.72;6096271;23;20065;-51
2022/10/27 02:30:11;;;;;;;8.90;4.03;;;;;;;14.98;100.00;102041.56;6097720;23;20022;-51
2022/10/27 02:32:39;;;;;;;10.02;3.70;;;;;;;14.98;100.00;102041.56;6098622;23;20010;-52
2022/10/27 02:35:09;;;;;;;11.00;3.67;;;;;;;14.97;100.00;102034.44;6072410;23;20482;-52
2022/10/27 02:37:39;;;;;;;9.38;3.53;;;;;;;14.98;100.00;102035.25;6096146;23;20047;-52
2022/10/27 02:40:07;;;;;;;8.63;3.60;;;;;;;14.98;100.00;102040.72;6098351;23;20023;-53
2022/10/27 02:42:35;;;;;;;8.80;4.00;;;;;;;14.98;100.00;102040.72;6098479;23;20096;-51
2022/10/27 02:45:02;;;;;;;10.25;3.97;;;;;;;14.98;100.00;102040.72;6098642;23;20025;-52
2022/10/27 02:47:30;;;;;;;7.53;3.53;;;;;;;14.96;100.00;102045.66;6097839;23;20399;-53
2022/10/27 02:49:58;;;;;;;12.27;4.03;;;;;;;14.94;100.00;102034.97;6098060;23;20026;-51
2022/10/27 02:52:25;;;;;;;10.20;3.95;;;;;;;14.94;100.00;102034.16;6096470;23;20018;-51
2022/10/27 02:54:53;;;;;;;8.43;3.75;;;;;;;14.91;100.00;102036.34;6097916;23;20066;-52
2022/10/27 02:57:20;;;;;;;12.32;4.07;;;;;;;14.89;100.00;102033.03;6097291;23;20580;-53
2022/10/27 02:59:48;;;;;;;11.25;4.00;;;;;;;14.88;100.00;102025.88;6097828;23;20022;-51
2022/10/27 03:02:21;;;;;;;10.38;3.50;;;;;;;14.88;100.00;102025.88;6097461;23;20022;-52
2022/10/27 03:04:50;;;;;;;12.60;3.63;;;;;;;14.87;100.00;102023.41;6098401;23;20022;-51
2022/10/27 03:07:18;;;;;;;9.25;3.55;;;;;;;14.86;100.00;102019.84;6071619;23;20066;-52
2022/10/27 03:09:46;;;;;;;11.40;3.80;;;;;;;14.83;100.00;102023.09;6096361;23;20022;-51
2022/10/27 03:12:13;;;;;;;11.55;3.70;;;;;;;14.80;100.00;102017.34;6095984;23;20455;-51
2022/10/27 03:14:41;;;;;;;10.82;4.15;;;;;;;14.77;100.00;102024.19;6097652;23;20029;-52
2022/10/27 03:17:08;;;;;;;10.90;3.50;;;;;;;14.75;100.00;102014.56;6097350;23;20015;-50
2022/10/27 03:19:36;;;;;;;11.77;3.30;;;;;;;14.75;100.00;102018.13;6096747;23;20065;-50
2022/10/27 03:22:03;;;;;;;9.77;3.80;;;;;;;14.78;100.00;102014.03;6097884;23;20511;-52
2022/10/27 03:24:31;;;;;;;7.30;3.53;;;;;;;14.79;100.00;102011.03;6071972;23;20019;-54
2022/10/27 03:26:58;;;;;;;9.02;3.78;;;;;;;14.81;100.00;102013.50;6097000;23;20463;-51
2022/10/27 03:29:26;;;;;;;9.18;3.70;;;;;;;14.81;100.00;102008.81;6097544;23;20026;-51
2022/10/27 03:31:54;;;;;;;9.40;4.10;;;;;;;14.82;100.00;102007.75;6097754;23;20070;-54
2022/10/27 03:34:21;;;;;;;11.48;4.40;;;;;;;14.82;100.00;102006.94;6097600;23;20023;-52
2022/10/27 03:36:49;;;;;;;10.05;4.13;;;;;;;14.80;100.00;102007.19;6096150;23;20069;-51
2022/10/27 03:39:16;;;;;;;12.10;4.93;;;;;;;14.82;100.00;102005.00;6095198;23;20083;-52
2022/10/27 03:41:44;;;;;;;14.43;5.50;;;;;;;14.82;100.00;102005.00;6097553;23;20046;-51
2022/10/27 03:44:11;;;;;;;11.43;5.03;;;;;;;14.80;100.00;102012.66;6097407;23;20050;-55
2022/10/27 03:46:39;;;;;;;14.45;5.93;;;;;;;14.80;100.00;102009.09;6097308;23;20498;-52
2022/10/27 03:49:06;;;;;;;14.57;5.63;;;;;;;14.79;100.00;102013.78;6096473;23;20022;-54
2022/10/27 03:51:34;;;;;;;16.27;5.57;;;;;;;14.77;100.00;102007.72;6097525;23;20027;-53
2022/10/27 03:54:02;;;;;;;12.20;5.40;;;;;;;14.77;100.00;102002.25;6097659;23;20023;-52
2022/10/27 03:56:29;;;;;;;13.75;4.88;;;;;;;14.78;100.00;102003.06;6097316;23;20093;-50
2022/10/27 03:58:57;;;;;;;13.98;5.57;;;;;;;14.77;100.00;101996.75;6096500;23;20022;-50
2022/10/27 04:01:24;;;;;;;17.33;5.05;;;;;;;14.77;100.00;101996.75;6096482;23;20046;-55
2022/10/27 04:03:52;;;;;;;12.18;5.07;;;;;;;14.75;100.00;101992.63;6095861;23;20026;-52
2022/10/27 04:06:20;;;;;;;10.90;4.90;;;;;;;14.72;100.00;101994.00;6096163;23;20018;-52
2022/10/27 04:08:47;;;;;;;11.07;4.90;;;;;;;14.72;100.00;101996.72;6095832;23;20030;-52
2022/10/27 04:11:15;;;;;;;9.80;4.20;;;;;;;14.71;100.00;101997.81;6097309;23;20398;-55
2022/10/27 04:13:42;;;;;;;12.70;4.70;;;;;;;14.71;100.00;101997.81;6097227;23;20452;-50
2022/10/27 04:16:10;;;;;;;10.57;4.43;;;;;;;14.70;100.00;101996.16;6097205;23;20062;-51
2022/10/27 04:18:37;;;;;;;10.25;4.38;;;;;;;14.63;100.00;101998.31;6096695;23;20399;-49
2022/10/27 04:21:06;;;;;;;12.73;4.25;;;;;;;14.56;100.00;102008.72;6095090;23;20028;-50
2022/10/27 04:23:33;;;;;;;7.97;3.90;;;;;;;14.52;100.00;102007.56;6097666;23;20049;-51
2022/10/27 04:26:01;;;;;;;9.27;3.72;;;;;;;14.49;100.00;102004.25;6097744;23;20078;-51
2022/10/27 04:28:29;;;;;;;9.02;3.97;;;;;;;14.52;100.00;102004.81;6098122;23;20022;-51
2022/10/27 04:30:57;;;;;;;10.18;3.95;;;;;;;14.54;100.00;102008.16;6096414;23;20029;-51
2022/10/27 04:33:24;;;;;;;10.68;4.05;;;;;;;14.56;100.00;102016.94;6098349;23;20343;-52
2022/10/27 04:35:57;;;;;;;10.15;3.47;;;;;;;14.59;100.00;102003.50;6097895;23;20027;-48
2022/10/27 04:38:25;;;;;;;8.60;3.72;;;;;;;14.61;100.00;102006.00;6097619;23;20077;-48
2022/10/27 04:40:52;;;;;;;10.43;3.88;;;;;;;14.62;100.00;102024.09;6096597;23;20023;-53
2022/10/27 04:43:20;;;;;;;8.57;3.72;;;;;;;14.61;100.00;102022.44;6097123;23;20018;-49
2022/10/27 04:45:48;;;;;;;8.38;3.42;;;;;;;14.60;100.00;102023.53;6098130;23;20018;-52
2022/10/27 04:48:15;;;;;;;8.65;3.78;;;;;;;14.56;100.00;102023.25;6097720;23;20046;-49
2022/10/27 04:50:43;;;;;;;7.55;3.40;;;;;;;14.54;100.00;102030.09;6095993;23;20019;-52
2022/10/27 04:53:10;;;;;;;9.60;3.90;;;;;;;14.48;100.00;102032.78;6097608;23;20022;-48
2022/10/27 04:55:38;;;;;;;13.15;4.15;;;;;;;14.44;100.00;102031.63;6097368;23;20410;-49
2022/10/27 04:58:05;;;;;;;9.63;3.88;;;;;;;14.42;100.00;102033.00;6097313;23;20082;-48
2022/10/27 05:00:36;;;;;;;8.30;3.47;;;;;;;14.38;100.00;102032.72;6096395;23;20018;-50
2022/10/27 05:03:04;;;;;;;11.98;3.58;;;;;;;14.36;100.00;102029.41;6095524;23;20046;-47
2022/10/27 05:05:31;;;;;;;9.23;4.10;;;;;;;14.37;100.00;102033.78;6095214;23;20424;-49
2022/10/27 05:08:01;;;;;;;11.40;4.57;;;;;;;14.37;100.00;102022.81;6096607;23;20507;-48
2022/10/27 05:10:29;;;;;;;11.18;4.03;;;;;;;14.36;100.00;102029.41;6095402;23;20082;-49
2022/10/27 05:12:57;;;;;;;10.80;3.65;;;;;;;14.31;100.00;102023.88;6095897;23;20451;-49
2022/10/27 05:15:25;;;;;;;8.48;3.70;;;;;;;14.23;100.00;102025.19;6096456;23;20014;-49
2022/10/27 05:17:53;;;;;;;8.93;3.80;;;;;;;14.18;100.00;102022.41;6095232;23;20073;-50
2022/10/27 05:20:21;;;;;;;8.60;3.63;;;;;;;14.18;100.00;102019.66;6091825;23;20022;-48
2022/10/27 05:22:49;;;;;;;13.20;3.72;;;;;;;14.20;100.00;102013.94;6092087;23;20485;-52
2022/10/27 05:25:17;;;;;;;12.68;3.80;;;;;;;14.22;100.00;102018.06;6090717;23;20078;-49
2022/10/27 05:27:44;;;;;;;12.15;3.65;;;;;;;14.25;100.00;102017.53;6091334;23;20073;-52
2022/10/27 05:30:13;;;;;;;9.82;3.33;;;;;;;14.28;100.00;102021.66;6092248;23;20030;-51
2022/10/27 05:32:41;;;;;;;9.65;3.72;;;;;;;14.32;100.00;102022.78;6090671;23;20037;-50
2022/10/27 05:35:12;;;;;;;7.35;3.40;;;;;;;14.34;100.00;102022.53;6092416;23;20443;-51
2022/10/27 05:37:44;;;;;;;11.45;3.60;;;;;;;14.37;100.00;102022.81;6092485;23;20056;-48
2022/10/27 05:40:12;;;;;;;10.32;3.88;;;;;;;14.38;100.00;102021.75;6092928;23;20101;-50
2022/10/27 05:42:40;;;;;;;6.70;3.10;;;;;;;14.41;100.00;102018.47;6094482;23;20093;-49
2022/10/27 05:45:08;;;;;;;10.00;3.40;;;;;;;14.44;100.00;102014.38;6092646;23;20018;-50
2022/10/27 05:47:35;;;;;;;9.23;3.30;;;;;;;14.44;100.00;102015.19;6094217;23;20022;-49
2022/10/27 05:50:03;;;;;;;7.93;3.25;;;;;;;14.46;100.00;102017.69;6093716;23;20104;-50
2022/10/27 05:52:30;;;;;;;8.48;3.28;;;;;;;14.46;100.00;102023.97;6094270;23;20054;-49
2022/10/27 05:54:58;;;;;;;10.93;3.72;;;;;;;14.47;100.00;102024.78;6092873;23;20048;-49
2022/10/27 05:57:26;;;;;;;9.48;3.35;;;;;;;14.44;100.00;102012.44;6092778;23;20022;-49
2022/10/27 05:59:53;;;;;;;10.43;3.72;;;;;;;14.40;100.00;102016.78;6093883;23;20078;-47
2022/10/27 06:02:21;;;;;;;10.75;3.42;;;;;;;14.34;100.00;102009.66;6093883;23;20022;-50
2022/10/27 06:04:48;;;;;;;9.10;3.70;;;;;;;14.30;100.00;102011.25;6094205;23;20022;-51
2022/10/27 06:07:16;;;;;;;8.15;3.80;;;;;;;14.27;100.00;102014.53;6094304;23;20026;-50
2022/10/27 06:09:44;;;;;;;9.77;3.72;;;;;;;14.27;100.00;102020.00;6094441;23;20030;-48
2022/10/27 06:12:11;;;;;;;8.60;3.45;;;;;;;14.26;100.00;102007.38;6094179;23;20045;-49
2022/10/27 06:14:39;;;;;;;9.00;3.08;;;;;;;14.26;100.00;102010.13;6094155;23;20018;-50
2022/10/27 06:17:06;;;;;;;14.70;4.00;;;;;;;14.24;100.00;102006.84;6093075;23;20030;-50
2022/10/27 06:19:34;;;;;;;10.75;4.15;;;;;;;14.22;100.00;102007.09;6093568;23;20042;-51
2022/10/27 06:22:01;;;;;;;9.90;3.40;;;;;;;14.22;100.00;102000.78;6092707;23;20023;-50
2022/10/27 06:24:29;;;;;;;10.25;3.63;;;;;;;14.21;100.00;101993.63;6092682;23;20332;-49
2022/10/27 06:26:56;;;;;;;9.18;3.20;;;;;;;14.22;100.00;101987.09;6094677;23;20396;-51
2022/10/27 06:29:24;;;;;;;9.20;3.45;;;;;;;14.22;100.00;101996.13;6094454;23;20022;-50
2022/10/27 06:31:52;;;;;;;11.52;3.95;;;;;;;14.24;100.00;101993.13;6093911;23;20451;-51
2022/10/27 06:34:19;;;;;;;8.73;3.50;;;;;;;14.25;100.00;101997.50;6092889;23;20031;-49
2022/10/27 06:36:47;;;;;;;8.25;3.53;;;;;;;14.26;100.00;101999.16;6093599;23;20738;-54
2022/10/27 06:39:15;;;;;;;9.00;3.70;;;;;;;14.27;100.00;102003.56;6094229;23;20014;-49
2022/10/27 06:41:42;;;;;;;11.15;3.60;;;;;;;14.30;100.00;102002.22;6094191;23;20026;-49
2022/10/27 06:44:13;;;;;;;5.70;3.25;;;;;;;14.32;100.00;102000.03;6093966;23;20019;-49
2022/10/27 06:46:40;;;;;;;6.97;3.55;;;;;;;14.36;100.00;101998.38;6093522;23;20533;-49
2022/10/27 06:49:08;;;;;;;8.82;3.47;;;;;;;14.36;100.00;101992.91;6093584;23;20463;-49
2022/10/27 06:51:38;;;;;;;9.45;4.57;;;;;;;14.36;100.00;101987.44;6093798;23;20050;-49
2022/10/27 06:54:06;;;;;;;9.15;3.70;;;;;;;14.36;100.00;101980.06;6093836;23;20027;-49
2022/10/27 06:56:33;;;;;;;10.75;3.97;;;;;;;14.34;100.00;101998.69;6067941;23;20021;-49
2022/10/27 06:59:01;;;;;;;13.25;4.05;;;;;;;14.34;100.00;101987.72;6092829;23;20031;-51
2022/10/27 07:01:30;;;;;;;8.30;3.60;;;;;;;14.35;100.00;101985.78;6093555;23;20405;-50
2022/10/27 07:03:58;;;;;;;12.70;4.15;;;;;;;14.36;100.00;101987.44;6093612;23;20022;-52
2022/10/27 07:06:26;;;;;;;9.80;3.83;;;;;;;14.34;100.00;101982.22;6093626;23;20038;-50
2022/10/27 07:08:54;;;;;;;10.13;3.85;;;;;;;14.35;100.00;101986.59;6091702;23;20383;-50
2022/10/27 07:11:27;;;;;;;10.38;4.03;;;;;;;14.34;100.00;101975.94;6092888;23;20030;-49
2022/10/27 07:13:55;;;;;;;11.88;4.15;;;;;;;14.33;100.00;101975.06;6093787;23;20048;-50
2022/10/27 07:16:22;;;;;;;9.00;3.78;;;;;;;14.33;100.00;101975.06;6092151;23;20022;-51
2022/10/27 07:18:50;;;;;;;9.40;4.40;;;;;;;14.36;100.00;101974.56;6095534;23;20486;-51
2022/10/27 07:21:18;;;;;;;10.50;4.22;;;;;;;14.39;100.00;101973.22;6094351;23;20018;-52
2022/10/27 07:23:45;;;;;;;10.98;4.22;;;;;;;14.39;100.00;101979.50;6097048;23;20028;-50
2022/10/27 07:26:13;;;;;;;10.80;3.90;;;;;;;14.38;100.00;101983.34;6096772;23;20451;-51
2022/10/27 07:28:41;;;;;;;14.55;4.78;;;;;;;14.37;100.00;101987.16;6097550;23;20093;-51
2022/10/27 07:31:08;;;;;;;12.38;4.05;;;;;;;14.37;100.00;101983.63;6096660;23;20026;-52
2022/10/27 07:33:36;;;;;;;9.98;4.15;;;;;;;14.36;100.00;101988.28;6097110;23;20022;-47
2022/10/27 07:36:03;;;;;;;9.85;3.83;;;;;;;14.37;100.00;101992.66;6097102;23;20148;-49
2022/10/27 07:38:31;;;;;;;8.63;3.58;;;;;;;14.41;100.00;101988.31;6095601;23;20379;-51
2022/10/27 07:40:59;;;;;;;9.07;4.10;;;;;;;14.42;100.00;101989.94;6096928;23;20018;-49
2022/10/27 07:43:26;;;;;;;10.05;3.88;;;;;;;14.42;100.00;101978.97;6096747;23;20018;-50
2022/10/27 07:45:54;;;;;;;15.48;3.97;;;;;;;14.43;100.00;101985.28;6097167;23;20070;-51
2022/10/27 07:48:21;;;;;;;18.98;5.00;;;;;;;14.46;100.00;101980.09;6097289;23;20026;-52
2022/10/27 07:50:50;;;;;;;12.00;3.75;;;;;;;14.49;100.00;101982.31;6096699;23;20450;-51
2022/10/27 07:53:18;;;;;;;12.73;4.47;;;;;;;14.49;100.00;101979.56;6096521;23;20022;-50
2022/10/27 07:55:46;;;;;;;11.60;4.05;;;;;;;14.51;100.00;101981.22;6096306;23;20387;-49
2022/10/27 07:58:15;;;;;;;14.98;4.45;;;;;;;14.54;100.00;101983.47;6096536;23;20021;-48
2022/10/27 08:00:45;;;;;;;12.32;4.13;;;;;;;14.56;100.00;101986.78;6094763;23;20042;-48
2022/10/27 08:03:21;;;;;;;15.32;4.65;;;;;;;14.59;100.00;101983.47;6096823;23;20037;-50
2022/10/27 08:05:49;;;;;;;12.18;4.25;;;;;;;14.63;100.00;101984.63;6096713;23;20022;-49
2022/10/27 08:08:17;;;;;;;12.98;4.03;;;;;;;14.67;100.00;101982.97;6096508;23;20081;-48
2022/10/27 08:10:45;;;;;;;12.25;4.20;;;;;;;14.70;100.00;101985.19;6096619;23;20070;-46
2022/10/27 08:13:13;;;;;;;14.32;4.75;;;;;;;14.73;100.00;101973.69;6071477;23;20317;-49
2022/10/27 08:15:40;;;;;;;11.30;4.30;;;;;;;14.78;100.00;101981.94;6094678;23;20018;-48
2022/10/27 08:18:09;;;;;;;9.88;3.50;;;;;;;14.80;100.00;101976.19;6096842;23;20025;-51
2022/10/27 08:20:40;;;;;;;12.60;4.18;;;;;;;14.83;100.00;101984.69;6096378;23;20033;-50
2022/10/27 08:23:10;;;;;;;11.52;4.38;;;;;;;14.86;100.00;101984.19;6096418;23;20380;-52
2022/10/27 08:25:38;;;;;;;14.88;4.60;;;;;;;14.89;100.00;101983.63;6095347;23;20030;-53
2022/10/27 08:28:06;;;;;;;13.13;4.15;;;;;;;14.91;100.00;101986.09;6096269;23;20392;-51
2022/10/27 08:30:34;;;;;;;13.43;3.70;;;;;;;14.91;100.00;101986.94;6095173;23;20074;-50
2022/10/27 08:33:09;;;;;;;8.15;3.50;;;;;;;14.95;100.00;101984.47;6096561;23;20022;-49
2022/10/27 08:35:37;;;;;;;13.38;4.18;;;;;;;14.97;100.00;101984.22;6094355;23;20023;-50
2022/10/27 08:38:15;;;;;;;12.75;4.20;;;;;;;14.97;100.00;101967.75;6096292;23;20018;-50
2022/10/27 08:41:08;;;;;;;9.13;3.65;;;;;;;14.97;100.00;101971.31;6094773;23;20019;-51
2022/10/27 08:43:54;;;;;;;9.70;3.63;;;;;;;14.97;100.00;101962.25;6096328;23;20359;-51
2022/10/27 08:46:23;;;;;;;;;;;;;;;14.98;100.00;101963.88;6096350;23;20090;-49
2022/10/27 08:48:54;;;;;;;9.30;3.55;;;;;;;15.03;100.00;101961.16;6096944;23;19972;-50
2022/10/27 08:51:23;;;;;;;8.88;3.03;;;;;;;15.06;100.00;101955.16;6094994;23;20546;-51
2022/10/27 08:53:56;;;;;;;11.13;3.20;;;;;;;15.09;100.00;101960.09;6095296;23;20018;-50
2022/10/27 08:56:27;;;;;;;8.65;2.92;;;;;;;15.10;100.00;101959.81;6095316;23;20074;-49
2022/10/27 08:58:55;;;;;;;12.35;3.35;;;;;;;15.13;100.00;101955.72;6097076;23;20018;-49
2022/10/27 09:01:53;;;;;;;8.00;3.10;;;;;;;15.15;100.00;101953.50;6095091;23;20039;-51
2022/10/27 09:04:26;;;;;;;11.52;3.40;;;;;;;15.19;100.00;101956.53;6063609;23;20033;-49
2022/10/27 09:07:00;;;;;;;9.88;3.83;;;;;;;15.22;100.00;101954.06;6097016;23;20022;-49
2022/10/27 09:09:56;;;;;;;7.57;2.70;;;;;;;15.28;100.00;101947.50;6096906;23;20459;-48
2022/10/27 09:12:41;;;;;;;8.73;3.00;;;;;;;15.32;100.00;101948.63;6092908;23;20059;-51
2022/10/27 09:15:30;;;;;;;8.63;2.92;;;;;;;15.37;100.00;101947.78;6099021;23;20014;-52
2022/10/27 09:18:09;;;;;;;5.82;2.65;;;;;;;15.38;100.00;101940.38;6097903;23;20015;-54
2022/10/27 09:20:51;;;;;;;8.00;2.65;;;;;;;15.41;100.00;101934.31;6097479;23;20042;-50
2022/10/27 09:23:43;;;;;;;8.30;2.90;;;;;;;15.44;99.95;101925.53;6097449;23;20042;-49
2022/10/27 09:26:12;;;;;;;9.35;3.03;;;;;;;15.47;100.00;101916.75;6097423;23;20014;-52
2022/10/27 09:28:41;;;;;;;9.43;2.95;;;;;;;15.50;99.77;101918.97;6097484;23;20050;-49
2022/10/27 09:31:18;;;;;;;7.00;2.60;;;;;;;15.55;99.28;101916.22;6098820;23;20022;-50
2022/10/27 09:34:08;;;;;;;9.10;3.10;;;;;;;15.60;98.70;101915.38;6072991;23;20023;-50
2022/10/27 09:36:36;;;;;;;9.23;2.60;;;;;;;15.67;98.31;101910.44;6096664;23;20482;-51
2022/10/27 09:39:03;;;;;;;7.25;3.00;;;;;;;15.69;98.18;101919.22;6097082;23;20082;-48
2022/10/27 09:41:32;;;;;;;8.55;2.72;;;;;;;15.71;97.78;101923.38;6098728;23;20453;-49
2022/10/27 09:43:59;;;;;;;9.82;3.28;;;;;;;15.75;97.34;101918.16;6097025;23;20459;-51
2022/10/27 09:46:28;;;;;;;8.57;2.65;;;;;;;15.77;97.62;101918.69;6097147;23;20065;-49
2022/10/27 09:49:04;;;;;;;7.80;2.80;;;;;;;15.81;97.67;101905.25;6097179;23;20022;-49
2022/10/27 09:51:44;;;;;;;5.47;2.60;;;;;;;15.84;96.94;101912.94;6096738;23;20030;-51
2022/10/27 09:54:33;;;;;;;9.45;3.10;;;;;;;15.86;96.67;101905.22;6098958;23;20023;-53
2022/10/27 09:57:07;;;;;;;5.88;2.50;;;;;;;15.90;95.97;101898.09;6073157;23;20109;-50
2022/10/27 09:59:37;;;;;;;11.55;2.65;;;;;;;15.94;95.20;101890.91;6097287;23;20022;-51
2022/10/27 10:02:21;;;;;;;6.30;2.60;;;;;;;15.96;94.77;101888.72;6096630;23;20367;-50
2022/10/27 10:04:49;;;;;;;6.65;2.78;;;;;;;16.01;94.47;101885.94;6098620;23;20070;-49
2022/10/27 10:07:46;;;;;;;6.10;2.53;;;;;;;16.08;94.03;101888.41;6097869;23;20015;-49
2022/10/27 10:10:24;;;;;;;5.93;2.50;;;;;;;16.15;93.50;101895.25;6073557;23;20026;-51
2022/10/27 10:13:02;;;;;;;8.60;2.42;;;;;;;16.19;93.45;101899.09;6097027;23;20018;-49
2022/10/27 10:15:32;;;;;;;7.82;2.33;;;;;;;16.22;92.87;101899.66;6098102;23;20022;-50
2022/10/27 10:18:01;;;;;;;5.28;2.13;;;;;;;16.26;92.72;101895.22;6096880;23;20506;-50
2022/10/27 10:20:39;;;;;;;6.45;2.38;;;;;;;16.29;92.85;101902.94;6096635;23;20455;-50
2022/10/27 10:23:21;;;;;;;10.20;3.00;;;;;;;16.35;92.67;101886.09;6098246;23;20018;-49
2022/10/27 10:25:50;;;;;;;8.82;2.53;;;;;;;16.42;92.04;101876.75;6096279;23;20019;-51
2022/10/27 10:28:24;;;;;;;5.03;2.30;;;;;;;16.48;91.03;101881.13;6096899;23;20022;-51
2022/10/27 10:30:52;;;;;;;6.57;2.60;;;;;;;16.49;91.13;101875.34;6098274;23;20026;-51
2022/10/27 10:33:23;;;;;;;9.25;2.58;;;;;;;16.50;91.23;101871.50;6073001;23;20102;-49
2022/10/27 10:35:51;;;;;;;8.25;2.17;;;;;;;16.50;91.15;101874.25;6072806;23;20023;-49
2022/10/27 10:38:40;;;;;;;7.35;2.33;;;;;;;16.56;90.86;101872.28;6097966;23;20018;-49
2022/10/27 10:41:12;;;;;;;7.22;2.70;;;;;;;16.60;90.25;101868.69;6098101;23;20019;-52
2022/10/27 10:43:40;;;;;;;10.30;2.60;;;;;;;16.61;90.51;101859.31;6096740;23;20015;-51
2022/10/27 10:46:23;;;;;;;10.23;2.88;;;;;;;16.66;90.11;101869.47;6096380;23;20344;-50
2022/10/27 10:48:56;;;;;;;13.20;2.83;;;;;;;16.69;89.87;101863.41;6072623;23;20451;-50
2022/10/27 10:51:26;;;;;;;7.55;2.40;;;;;;;16.72;90.01;101875.78;6096416;23;20022;-49
2022/10/27 10:54:07;;;;;;;6.82;2.60;;;;;;;16.71;90.15;101863.13;6096585;23;20092;-51
2022/10/27 10:56:36;;;;;;;6.18;2.38;;;;;;;16.71;90.71;101861.19;6096574;23;20053;-52
2022/10/27 10:59:13;;;;;;;9.80;2.63;;;;;;;16.72;90.73;101860.09;6096094;23;20025;-48
2022/10/27 11:02:06;;;;;;;7.57;2.60;;;;;;;16.78;90.55;101866.38;6096293;23;20014;-49
2022/10/27 11:04:46;;;;;;;6.70;2.40;;;;;;;16.82;90.72;101859.25;6097458;23;20029;-49
2022/10/27 11:07:23;;;;;;;7.40;2.75;;;;;;;16.85;90.55;101857.84;6097792;23;20023;-49
2022/10/27 11:09:59;;;;;;;8.15;2.60;;;;;;;16.87;90.65;101844.63;6096345;23;20022;-49
2022/10/27 11:12:40;;;;;;;6.20;2.72;;;;;;;16.88;90.90;101835.25;6097328;23;20050;-50
2022/10/27 11:15:14;;;;;;;11.40;3.22;;;;;;;16.86;91.53;101841.06;6096099;23;20031;-49
2022/10/27 11:17:43;;;;;;;10.15;3.17;;;;;;;16.84;91.73;101837.75;6097568;23;20019;-50
2022/10/27 11:20:25;;;;;;;11.85;2.75;;;;;;;16.86;91.44;101840.22;6095637;23;20027;-50
2022/10/27 11:22:53;;;;;;;11.68;2.80;;;;;;;16.87;91.48;101842.69;6096039;23;20312;-52
2022/10/27 11:25:24;;;;;;;13.40;2.72;;;;;;;16.92;91.13;101848.16;6096330;23;20025;-49
2022/10/27 11:28:03;;;;;;;7.95;2.53;;;;;;;16.97;90.84;101850.88;6096107;23;20019;-48
2022/10/27 11:30:32;;;;;;;5.65;2.25;;;;;;;17.00;91.37;101852.22;6095981;23;20038;-47
2022/10/27 11:33:07;;;;;;;9.55;3.10;;;;;;;17.03;91.07;101840.66;6095821;23;20026;-50
2022/10/27 11:35:38;;;;;;;5.55;2.45;;;;;;;17.04;90.60;101831.28;6095400;23;20033;-51